createdAt,value
2023-03-10T00:02:38.804Z,96408.97
2023-03-10T00:05:40.425Z,96421.88
2023-03-10T00:08:42.046Z,96409.69
2023-03-10T00:11:43.507Z,96412.25
2023-03-10T00:14:45.004Z,96400.16
2023-03-10T00:17:50.063Z,96403.66
2023-03-10T00:20:52.705Z,96393.47
2023-03-10T00:23:54.363Z,96384.09
2023-03-10T00:26:55.884Z,96368.25
2023-03-10T00:29:57.433Z,96363.03
2023-03-10T00:32:58.937Z,96366.91
2023-03-10T00:36:14.717Z,96368.22
2023-03-10T00:39:16.339Z,96371.47
2023-03-10T00:42:17.984Z,96374.88
2023-03-10T00:45:19.518Z,96376.50
2023-03-10T00:48:21.025Z,96392.81
2023-03-10T00:51:22.969Z,96378.19
2023-03-10T00:54:24.751Z,96381.44
2023-03-10T00:57:26.698Z,96392.03
2023-03-10T01:00:28.197Z,96379.34
2023-03-10T01:03:29.746Z,96388.47
2023-03-10T01:06:31.287Z,96406.31
2023-03-10T01:09:32.766Z,96411.16
2023-03-10T01:12:34.244Z,96419.53
2023-03-10T01:15:35.762Z,96439.25
2023-03-10T01:18:37.245Z,96435.75
2023-03-10T01:21:38.764Z,96455.63
2023-03-10T01:24:40.240Z,96461.22
2023-03-10T01:27:43.204Z,96467.22
2023-03-10T01:30:44.771Z,96459.22
2023-03-10T01:33:46.435Z,96469.72
2023-03-10T01:36:47.893Z,96466.22
2023-03-10T01:39:49.513Z,96463.72
2023-03-10T01:42:51.045Z,96465.34
2023-03-10T01:45:52.388Z,96471.22
2023-03-10T01:48:59.650Z,96476.59
2023-03-10T01:52:08.906Z,96461.50
2023-03-10T01:55:13.696Z,96446.03
2023-03-10T01:58:16.826Z,96448.88
2023-03-10T02:01:18.413Z,96457.66
2023-03-10T02:04:34.746Z,96452.03
2023-03-10T02:07:36.240Z,96432.34
2023-03-10T02:10:37.796Z,96424.84
2023-03-10T02:13:39.271Z,96432.31
2023-03-10T02:16:40.823Z,96433.19
2023-03-10T02:20:09.897Z,96414.25
2023-03-10T02:23:13.909Z,96412.25
2023-03-10T02:26:24.756Z,96404.84
2023-03-10T02:29:34.531Z,96409.88
2023-03-10T02:32:41.813Z,96410.63
2023-03-10T02:35:43.437Z,96420.13
2023-03-10T02:38:44.959Z,96405.59
2023-03-10T02:41:46.567Z,96409.75
2023-03-10T02:44:48.314Z,96404.69
2023-03-10T02:47:49.807Z,96397.63
2023-03-10T02:50:51.334Z,96414.22
2023-03-10T02:53:52.814Z,96409.22
2023-03-10T02:56:54.276Z,96403.44
2023-03-10T02:59:55.851Z,96394.13
2023-03-10T03:02:57.638Z,96380.38
2023-03-10T03:05:59.242Z,96391.47
2023-03-10T03:09:00.727Z,96362.97
2023-03-10T03:12:02.264Z,96365.69
2023-03-10T03:15:04.832Z,96377.44
2023-03-10T03:18:06.348Z,96368.72
2023-03-10T03:21:10.910Z,96361.13
2023-03-10T03:24:12.393Z,96340.38
2023-03-10T03:27:13.850Z,96335.59
2023-03-10T03:30:26.254Z,96333.06
2023-03-10T03:33:27.619Z,96316.06
2023-03-10T03:36:29.066Z,96321.66
2023-03-10T03:39:30.581Z,96319.91
2023-03-10T03:42:32.129Z,96313.00
2023-03-10T03:45:33.608Z,96312.16
2023-03-10T03:48:35.169Z,96326.97
2023-03-10T03:51:37.081Z,96333.25
2023-03-10T03:54:38.590Z,96331.22
2023-03-10T03:57:40.084Z,96321.06
2023-03-10T04:00:41.554Z,96317.63
2023-03-10T04:03:43.090Z,96321.50
2023-03-10T04:06:44.642Z,96313.75
2023-03-10T04:09:46.185Z,96298.75
2023-03-10T04:12:47.671Z,96274.91
2023-03-10T04:15:49.230Z,96275.16
2023-03-10T04:18:50.738Z,96284.44
2023-03-10T04:21:52.213Z,96266.97
2023-03-10T04:24:54.131Z,96282.13
2023-03-10T04:27:57.174Z,96281.22
2023-03-10T04:30:58.644Z,96279.38
2023-03-10T04:34:00.134Z,96282.72
2023-03-10T04:37:01.607Z,96300.03
2023-03-10T04:40:09.273Z,96303.50
2023-03-10T04:43:10.904Z,96287.38
2023-03-10T04:46:12.535Z,96271.22
2023-03-10T04:49:15.381Z,96261.13
2023-03-10T04:52:16.926Z,96239.81
2023-03-10T04:55:18.623Z,96217.47
2023-03-10T04:58:20.696Z,96215.63
2023-03-10T05:01:22.228Z,96205.34
2023-03-10T05:04:23.764Z,96177.53
2023-03-10T05:07:25.282Z,96170.41
2023-03-10T05:10:26.789Z,96184.56
2023-03-10T05:13:30.802Z,96158.59
2023-03-10T05:16:33.354Z,96169.56
2023-03-10T05:19:35.125Z,96142.91
2023-03-10T05:22:37.452Z,96148.22
2023-03-10T05:25:39.854Z,96154.22
2023-03-10T05:28:41.284Z,96145.97
2023-03-10T05:31:42.912Z,96156.47
2023-03-10T05:34:44.470Z,96160.59
2023-03-10T05:37:45.948Z,96147.03
2023-03-10T05:40:47.445Z,96153.59
2023-03-10T05:43:48.938Z,96156.03
2023-03-10T05:46:50.544Z,96160.03
2023-03-10T05:49:52.126Z,96158.31
2023-03-10T05:52:53.620Z,96156.28
2023-03-10T05:55:55.183Z,96144.34
2023-03-10T05:58:56.734Z,96137.81
2023-03-10T06:01:58.526Z,96134.28
2023-03-10T06:04:59.977Z,96132.53
2023-03-10T06:08:01.591Z,96110.91
2023-03-10T06:11:03.498Z,96110.81
2023-03-10T06:14:04.984Z,96084.03
2023-03-10T06:17:06.464Z,96079.31
2023-03-10T06:20:08.338Z,96113.66
2023-03-10T06:23:09.887Z,96111.50
2023-03-10T06:26:12.941Z,96113.16
2023-03-10T06:29:14.457Z,96102.44
2023-03-10T06:32:15.965Z,96106.03
2023-03-10T06:35:17.631Z,96086.41
2023-03-10T06:38:19.190Z,96078.63
2023-03-10T06:41:21.083Z,96085.31
2023-03-10T06:44:22.552Z,96103.72
2023-03-10T06:47:24.209Z,96071.19
2023-03-10T06:50:25.719Z,96095.34
2023-03-10T06:53:27.332Z,96096.09
2023-03-10T06:56:28.877Z,96093.69
2023-03-10T06:59:32.158Z,96097.06
2023-03-10T07:02:33.673Z,96080.59
2023-03-10T07:05:35.134Z,96089.66
2023-03-10T07:08:36.605Z,96095.44
2023-03-10T07:11:38.085Z,96088.09
2023-03-10T07:14:39.592Z,96086.31
2023-03-10T07:17:41.108Z,96107.00
2023-03-10T07:20:44.672Z,96121.16
2023-03-10T07:23:46.194Z,96137.38
2023-03-10T07:26:47.659Z,96121.69
2023-03-10T07:29:49.188Z,96116.72
2023-03-10T07:32:53.109Z,96117.13
2023-03-10T07:35:54.776Z,96142.91
2023-03-10T07:38:56.606Z,96159.34
2023-03-10T07:41:58.173Z,96147.16
2023-03-10T07:44:59.749Z,96184.75
2023-03-10T07:48:01.321Z,96184.03
2023-03-10T07:51:02.812Z,96183.00
2023-03-10T07:54:04.538Z,96192.09
2023-03-10T07:57:06.045Z,96196.97
2023-03-10T08:00:08.216Z,96203.66
2023-03-10T08:03:09.718Z,96212.44
2023-03-10T08:06:20.695Z,96204.25
2023-03-10T08:09:22.275Z,96215.44
2023-03-10T08:12:23.818Z,96209.00
2023-03-10T08:15:26.376Z,96200.63
2023-03-10T08:18:28.015Z,96208.50
2023-03-10T08:21:29.561Z,96210.44
2023-03-10T08:24:31.069Z,96192.41
2023-03-10T08:27:32.610Z,96194.16
2023-03-10T08:30:34.117Z,96197.50
2023-03-10T08:33:35.838Z,96211.34
2023-03-10T08:36:38.229Z,96203.03
2023-03-10T08:39:40.254Z,96204.97
2023-03-10T08:42:41.877Z,96211.59
2023-03-10T08:45:43.360Z,96236.84
2023-03-10T08:48:44.860Z,96253.69
2023-03-10T08:51:46.406Z,96242.91
2023-03-10T08:54:47.909Z,96247.09
2023-03-10T08:57:49.386Z,96235.72
2023-03-10T09:00:50.900Z,96241.56
2023-03-10T09:03:52.501Z,96237.78
2023-03-10T09:06:53.997Z,96239.47
2023-03-10T09:09:55.497Z,96234.34
2023-03-10T09:13:12.670Z,96236.38
2023-03-10T09:16:15.805Z,96245.03
2023-03-10T09:19:17.376Z,96239.94
2023-03-10T09:22:18.848Z,96235.47
2023-03-10T09:25:20.466Z,96221.72
2023-03-10T09:28:21.979Z,96229.47
2023-03-10T09:31:25.708Z,96225.78
2023-03-10T09:34:27.731Z,96239.81
2023-03-10T09:37:29.228Z,96234.16
2023-03-10T09:40:30.712Z,96243.06
2023-03-10T09:43:35.760Z,96233.59
2023-03-10T09:46:52.524Z,96245.00
2023-03-10T09:50:10.361Z,96244.28
2023-03-10T09:53:49.801Z,96251.38
2023-03-10T09:56:51.704Z,96250.28
2023-03-10T09:59:57.072Z,96264.44
2023-03-10T10:03:08.959Z,96279.00
2023-03-10T10:06:16.710Z,96262.53
2023-03-10T10:09:42.531Z,96282.69
2023-03-10T10:12:45.110Z,96281.84
2023-03-10T10:15:50.023Z,96283.81
2023-03-10T10:19:20.206Z,96298.84
2023-03-10T10:22:26.042Z,96314.50
2023-03-10T10:25:30.944Z,96312.41
2023-03-10T10:28:55.944Z,96308.44
2023-03-10T10:32:11.469Z,96313.06
2023-03-10T10:35:15.300Z,96315.47
2023-03-10T10:38:18.875Z,96313.06
2023-03-10T10:41:22.094Z,96312.66
2023-03-10T10:44:23.589Z,96312.16
2023-03-10T10:47:35.687Z,96315.63
2023-03-10T10:50:37.590Z,96313.03
2023-03-10T10:53:39.078Z,96305.88
2023-03-10T10:56:40.556Z,96309.06
2023-03-10T10:59:42.046Z,96336.50
2023-03-10T11:02:43.577Z,96313.97
2023-03-10T11:05:45.074Z,96325.22
2023-03-10T11:08:51.140Z,96319.75
2023-03-10T11:12:04.944Z,96309.19
2023-03-10T11:15:20.165Z,96321.06
2023-03-10T11:18:27.898Z,96328.94
2023-03-10T11:21:29.656Z,96342.41
2023-03-10T11:24:36.054Z,96330.00
2023-03-10T11:27:59.220Z,96331.28
2023-03-10T11:31:26.475Z,96341.69
2023-03-10T11:34:32.306Z,96348.63
2023-03-10T11:37:54.584Z,96346.63
2023-03-10T11:40:59.915Z,96357.41
2023-03-10T11:44:20.886Z,96357.69
2023-03-10T11:47:43.513Z,96358.44
2023-03-10T11:50:52.862Z,96353.94
2023-03-10T11:53:55.435Z,96357.81
2023-03-10T11:56:57.849Z,96365.78
2023-03-10T12:00:05.669Z,96356.91
2023-03-10T12:03:38.886Z,96342.78
2023-03-10T12:07:09.784Z,96340.78
2023-03-10T12:10:11.255Z,96348.41
2023-03-10T12:13:27.037Z,96326.41
2023-03-10T12:16:30.855Z,96329.72
2023-03-10T12:19:32.415Z,96325.41
2023-03-10T12:22:40.037Z,96327.66
2023-03-10T12:25:45.060Z,96339.38
2023-03-10T12:28:46.525Z,96337.63
2023-03-10T12:31:52.500Z,96330.75
2023-03-10T12:35:28.087Z,96341.00
2023-03-10T12:38:32.505Z,96339.09
2023-03-10T12:41:43.793Z,96362.41
2023-03-10T12:44:51.014Z,96353.53
2023-03-10T12:48:07.427Z,96335.25
2023-03-10T12:51:11.949Z,96344.56
2023-03-10T12:54:31.919Z,96334.53
2023-03-10T12:57:58.280Z,96355.75
2023-03-10T13:01:04.167Z,96355.75
2023-03-10T13:04:06.698Z,96355.53
2023-03-10T13:07:14.679Z,96333.00
2023-03-10T13:10:19.464Z,96337.34
2023-03-10T13:13:20.976Z,96330.81
2023-03-10T13:16:22.509Z,96328.25
2023-03-10T13:19:25.036Z,96314.44
2023-03-10T13:22:26.389Z,96351.69
2023-03-10T13:25:28.503Z,96350.47
2023-03-10T13:28:31.999Z,96339.94
2023-03-10T13:31:33.898Z,96351.75
2023-03-10T13:34:36.733Z,96355.28
2023-03-10T13:37:38.232Z,96362.78
2023-03-10T13:40:42.116Z,96377.25
2023-03-10T13:43:45.090Z,96388.75
2023-03-10T13:46:48.150Z,96397.47
2023-03-10T13:49:57.857Z,96412.63
2023-03-10T13:53:00.177Z,96415.19
2023-03-10T13:56:09.771Z,96437.59
2023-03-10T13:59:15.915Z,96456.50
2023-03-10T14:02:27.991Z,96486.47
2023-03-10T14:05:41.592Z,96501.63
2023-03-10T14:08:43.108Z,96519.50
2023-03-10T14:11:46.924Z,96525.81
2023-03-10T14:14:50.482Z,96550.59
2023-03-10T14:18:08.226Z,96567.16
2023-03-10T14:21:32.431Z,96578.34
2023-03-10T14:24:33.899Z,96598.44
2023-03-10T14:27:36.024Z,96617.66
2023-03-10T14:30:38.854Z,96634.16
2023-03-10T14:33:42.243Z,96648.41
2023-03-10T14:36:43.899Z,96675.25
2023-03-10T14:39:45.429Z,96701.69
2023-03-10T14:42:47.699Z,96686.75
2023-03-10T14:45:49.774Z,96713.88
2023-03-10T14:48:51.471Z,96717.59
2023-03-10T14:51:53.322Z,96742.22
2023-03-10T14:54:54.851Z,96748.81
2023-03-10T14:58:00.556Z,96745.25
2023-03-10T15:01:02.182Z,96777.31
2023-03-10T15:04:03.749Z,96793.56
2023-03-10T15:07:05.264Z,96794.44
2023-03-10T15:10:11.530Z,96788.22
2023-03-10T15:13:13.680Z,96806.31
2023-03-10T15:16:15.306Z,96798.28
2023-03-10T15:19:22.507Z,96800.13
2023-03-10T15:22:24.076Z,96784.59
2023-03-10T15:25:25.591Z,96792.53
2023-03-10T15:28:27.149Z,96778.97
2023-03-10T15:31:28.773Z,96796.88
2023-03-10T15:34:30.320Z,96821.50
2023-03-10T15:37:31.852Z,96848.00
2023-03-10T15:40:33.926Z,96893.19
2023-03-10T15:43:35.439Z,96869.72
2023-03-10T15:46:37.777Z,96871.59
2023-03-10T15:49:42.982Z,96890.81
2023-03-10T15:52:57.840Z,96903.09
2023-03-10T15:55:59.365Z,96908.91
2023-03-10T15:59:00.872Z,96898.53
2023-03-10T16:02:02.527Z,96916.00
2023-03-10T16:05:05.476Z,96892.66
2023-03-10T16:08:07.191Z,96883.19
2023-03-10T16:11:17.004Z,96866.63
2023-03-10T16:14:18.540Z,96871.81
2023-03-10T16:17:20.770Z,96872.59
2023-03-10T16:20:22.296Z,96871.69
2023-03-10T16:23:23.853Z,96871.81
2023-03-10T16:26:25.359Z,96897.44
2023-03-10T16:29:26.969Z,96908.00
2023-03-10T16:32:28.750Z,96890.66
2023-03-10T16:35:31.517Z,96882.09
2023-03-10T16:38:33.707Z,96922.56
2023-03-10T16:41:35.220Z,96933.19
2023-03-10T16:44:36.741Z,96967.00
2023-03-10T16:47:38.318Z,96963.81
2023-03-10T16:50:39.844Z,96922.34
2023-03-10T16:53:41.340Z,96905.00
2023-03-10T16:56:45.028Z,96896.47
2023-03-10T16:59:46.520Z,96894.50
2023-03-10T17:02:48.068Z,96885.81
2023-03-10T17:05:53.611Z,96884.09
2023-03-10T17:08:55.402Z,96895.75
2023-03-10T17:11:56.853Z,96910.41
2023-03-10T17:14:58.311Z,96919.75
2023-03-10T17:17:59.827Z,96928.09
2023-03-10T17:21:13.073Z,96926.28
2023-03-10T17:24:16.322Z,96927.31
2023-03-10T17:27:17.799Z,96928.41
2023-03-10T17:30:20.027Z,96917.78
2023-03-10T17:33:21.537Z,96937.69
2023-03-10T17:36:23.006Z,96947.25
2023-03-10T17:39:24.991Z,96948.16
2023-03-10T17:42:29.123Z,97006.03
2023-03-10T17:45:30.647Z,97020.16
2023-03-10T17:48:32.771Z,97024.84
2023-03-10T17:51:34.328Z,97035.50
2023-03-10T17:54:35.839Z,97017.56
2023-03-10T17:57:39.127Z,97003.84
2023-03-10T18:00:42.155Z,96996.94
2023-03-10T18:03:44.379Z,96986.41
2023-03-10T18:06:46.934Z,97013.16
2023-03-10T18:09:48.422Z,97018.09
2023-03-10T18:12:50.104Z,97011.22
2023-03-10T18:15:51.639Z,97025.88
2023-03-10T18:18:53.186Z,97060.41
2023-03-10T18:21:54.682Z,97066.69
2023-03-10T18:24:57.844Z,97077.22
2023-03-10T18:27:59.333Z,97092.81
2023-03-10T18:31:00.857Z,97097.22
2023-03-10T18:34:02.649Z,97085.16
2023-03-10T18:37:04.169Z,97085.16
2023-03-10T18:40:06.180Z,97082.56
2023-03-10T18:43:07.829Z,97108.41
2023-03-10T18:46:09.715Z,97106.69
2023-03-10T18:49:11.679Z,97099.84
2023-03-10T18:52:16.068Z,97125.69
2023-03-10T18:55:17.678Z,97123.09
2023-03-10T18:58:19.369Z,97148.09
2023-03-10T19:01:20.939Z,97160.97
2023-03-10T19:04:22.500Z,97169.56
2023-03-10T19:07:23.995Z,97173.88
2023-03-10T19:10:25.520Z,97172.13
2023-03-10T19:13:27.793Z,97185.09
2023-03-10T19:16:29.530Z,97191.09
2023-03-10T19:19:31.056Z,97192.00
2023-03-10T19:22:34.191Z,97193.72
2023-03-10T19:25:35.812Z,97201.50
2023-03-10T19:28:37.842Z,97197.25
2023-03-10T19:31:39.952Z,97205.78
2023-03-10T19:34:41.786Z,97211.84
2023-03-10T19:37:43.618Z,97220.47
2023-03-10T19:40:46.513Z,97217.09
2023-03-10T19:43:51.373Z,97239.47
2023-03-10T19:46:56.296Z,97234.31
2023-03-10T19:49:57.819Z,97267.03
2023-03-10T19:52:59.345Z,97287.69
2023-03-10T19:56:03.789Z,97285.97
2023-03-10T19:59:06.172Z,97287.72
2023-03-10T20:02:09.928Z,97302.34
2023-03-10T20:05:13.823Z,97321.28
2023-03-10T20:08:15.352Z,97312.69
2023-03-10T20:11:19.159Z,97332.47
2023-03-10T20:14:21.068Z,97339.38
2023-03-10T20:17:22.955Z,97357.47
2023-03-10T20:20:24.554Z,97372.13
2023-03-10T20:23:26.102Z,97366.91
2023-03-10T20:26:27.628Z,97376.38
2023-03-10T20:29:29.150Z,97372.03
2023-03-10T20:32:30.775Z,97380.66
2023-03-10T20:35:32.528Z,97390.16
2023-03-10T20:38:34.116Z,97400.44
2023-03-10T20:41:35.642Z,97382.38
2023-03-10T20:44:37.912Z,97401.22
2023-03-10T20:47:39.467Z,97393.50
2023-03-10T20:50:40.951Z,97390.06
2023-03-10T20:53:42.573Z,97418.44
2023-03-10T20:56:44.075Z,97423.63
2023-03-10T20:59:45.774Z,97435.59
2023-03-10T21:02:47.932Z,97427.09
2023-03-10T21:05:50.489Z,97456.16
2023-03-10T21:08:54.382Z,97473.38
2023-03-10T21:11:55.909Z,97475.94
2023-03-10T21:14:57.942Z,97487.16
2023-03-10T21:17:59.426Z,97480.22
2023-03-10T21:21:06.981Z,97483.66
2023-03-10T21:24:08.691Z,97485.31
2023-03-10T21:27:10.187Z,97500.84
2023-03-10T21:30:12.728Z,97498.22
2023-03-10T21:33:14.439Z,97502.56
2023-03-10T21:36:17.687Z,97501.75
2023-03-10T21:39:19.194Z,97493.16
2023-03-10T21:42:20.660Z,97506.00
2023-03-10T21:45:23.148Z,97516.38
2023-03-10T21:48:24.727Z,97530.16
2023-03-10T21:51:26.398Z,97522.34
2023-03-10T21:54:28.611Z,97530.09
2023-03-10T21:57:30.169Z,97512.09
2023-03-10T22:00:31.877Z,97522.34
2023-03-10T22:03:34.086Z,97525.00
2023-03-10T22:06:35.586Z,97531.78
2023-03-10T22:09:38.601Z,97530.88
2023-03-10T22:12:40.125Z,97534.34
2023-03-10T22:15:41.633Z,97544.69
2023-03-10T22:18:43.730Z,97537.75
2023-03-10T22:21:45.269Z,97545.53
2023-03-10T22:24:46.988Z,97556.66
2023-03-10T22:27:50.442Z,97568.72
2023-03-10T22:30:51.982Z,97561.81
2023-03-10T22:33:53.524Z,97585.00
2023-03-10T22:36:55.013Z,97603.00
2023-03-10T22:39:56.517Z,97622.72
2023-03-10T22:42:57.998Z,97620.94
2023-03-10T22:45:59.894Z,97629.44
2023-03-10T22:49:01.394Z,97635.53
2023-03-10T22:52:06.905Z,97618.25
2023-03-10T22:55:10.161Z,97616.53
2023-03-10T22:58:11.804Z,97618.25
2023-03-10T23:01:13.291Z,97616.44
2023-03-10T23:04:14.845Z,97620.75
2023-03-10T23:07:16.316Z,97616.34
2023-03-10T23:10:28.245Z,97606.84
2023-03-10T23:13:29.756Z,97602.50
2023-03-10T23:16:36.417Z,97610.25
2023-03-10T23:19:38.102Z,97606.72
2023-03-10T23:22:41.495Z,97608.44
2023-03-10T23:25:44.406Z,97607.47
2023-03-10T23:28:45.895Z,97601.44
2023-03-10T23:31:47.621Z,97603.06
2023-03-10T23:34:49.237Z,97596.19
2023-03-10T23:37:50.810Z,97600.47
2023-03-10T23:40:52.792Z,97609.81
2023-03-10T23:43:55.085Z,97596.19
2023-03-10T23:46:56.548Z,97600.38
2023-03-10T23:49:58.064Z,97598.66
2023-03-10T23:52:59.613Z,97587.38
2023-03-10T23:56:01.151Z,97602.00
2023-03-10T23:59:02.660Z,97591.63
